sensor_id;sensor_type;location;lat;lon;timestamp;P1;durP1;ratioP1;P2;durP2;ratioP2
41689;SDS011;27372;42.658;23.256;2023-04-24T00:00:14;14.10;;;9.23;;
41689;SDS011;27372;42.658;23.256;2023-04-24T00:02:43;16.90;;;9.27;;
41689;SDS011;27372;42.658;23.256;2023-04-24T00:05:15;14.18;;;9.38;;
41689;SDS011;27372;42.658;23.256;2023-04-24T00:07:42;14.32;;;9.13;;
41689;SDS011;27372;42.658;23.256;2023-04-24T00:10:09;13.85;;;9.30;;
41689;SDS011;27372;42.658;23.256;2023-04-24T00:12:35;14.18;;;9.85;;
41689;SDS011;27372;42.658;23.256;2023-04-24T00:15:01;13.75;;;8.85;;
41689;SDS011;27372;42.658;23.256;2023-04-24T00:17:27;14.40;;;9.02;;
41689;SDS011;27372;42.658;23.256;2023-04-24T00:19:52;15.05;;;9.15;;
41689;SDS011;27372;42.658;23.256;2023-04-24T00:22:26;12.85;;;8.93;;
41689;SDS011;27372;42.658;23.256;2023-04-24T00:24:52;14.95;;;9.10;;
41689;SDS011;27372;42.658;23.256;2023-04-24T00:27:18;10.93;;;8.32;;
41689;SDS011;27372;42.658;23.256;2023-04-24T00:29:44;16.25;;;8.05;;
41689;SDS011;27372;42.658;23.256;2023-04-24T00:32:10;14.82;;;8.40;;
41689;SDS011;27372;42.658;23.256;2023-04-24T00:34:35;14.05;;;8.07;;
41689;SDS011;27372;42.658;23.256;2023-04-24T00:37:01;12.32;;;8.27;;
41689;SDS011;27372;42.658;23.256;2023-04-24T00:39:26;10.38;;;7.70;;
41689;SDS011;27372;42.658;23.256;2023-04-24T00:41:51;11.30;;;8.07;;
41689;SDS011;27372;42.658;23.256;2023-04-24T00:44:18;11.95;;;8.02;;
41689;SDS011;27372;42.658;23.256;2023-04-24T00:46:43;10.30;;;7.65;;
41689;SDS011;27372;42.658;23.256;2023-04-24T00:49:09;12.98;;;7.63;;
41689;SDS011;27372;42.658;23.256;2023-04-24T00:51:34;14.45;;;8.60;;
41689;SDS011;27372;42.658;23.256;2023-04-24T00:54:01;14.05;;;8.30;;
41689;SDS011;27372;42.658;23.256;2023-04-24T00:56:27;13.10;;;8.13;;
41689;SDS011;27372;42.658;23.256;2023-04-24T00:58:53;15.50;;;8.43;;
41689;SDS011;27372;42.658;23.256;2023-04-24T01:01:19;15.77;;;7.93;;
41689;SDS011;27372;42.658;23.256;2023-04-24T01:03:46;10.35;;;7.43;;
41689;SDS011;27372;42.658;23.256;2023-04-24T01:06:13;13.75;;;8.40;;
41689;SDS011;27372;42.658;23.256;2023-04-24T01:08:40;14.15;;;9.30;;
41689;SDS011;27372;42.658;23.256;2023-04-24T01:11:06;10.73;;;7.88;;
41689;SDS011;27372;42.658;23.256;2023-04-24T01:13:32;15.35;;;9.35;;
41689;SDS011;27372;42.658;23.256;2023-04-24T01:15:59;16.10;;;9.60;;
41689;SDS011;27372;42.658;23.256;2023-04-24T01:18:25;17.23;;;10.45;;
41689;SDS011;27372;42.658;23.256;2023-04-24T01:20:53;17.15;;;10.23;;
41689;SDS011;27372;42.658;23.256;2023-04-24T01:23:21;16.67;;;10.15;;
41689;SDS011;27372;42.658;23.256;2023-04-24T01:25:47;16.85;;;10.18;;
41689;SDS011;27372;42.658;23.256;2023-04-24T01:28:13;16.40;;;10.77;;
41689;SDS011;27372;42.658;23.256;2023-04-24T01:30:39;13.80;;;10.55;;
41689;SDS011;27372;42.658;23.256;2023-04-24T01:33:05;18.48;;;10.35;;
41689;SDS011;27372;42.658;23.256;2023-04-24T01:35:31;13.40;;;10.52;;
41689;SDS011;27372;42.658;23.256;2023-04-24T01:37:56;18.25;;;9.35;;
41689;SDS011;27372;42.658;23.256;2023-04-24T01:40:22;14.55;;;9.75;;
41689;SDS011;27372;42.658;23.256;2023-04-24T01:42:47;17.20;;;11.00;;
41689;SDS011;27372;42.658;23.256;2023-04-24T01:45:13;15.52;;;10.30;;
41689;SDS011;27372;42.658;23.256;2023-04-24T01:47:38;14.88;;;10.35;;
41689;SDS011;27372;42.658;23.256;2023-04-24T01:50:04;17.30;;;10.00;;
41689;SDS011;27372;42.658;23.256;2023-04-24T01:52:30;14.40;;;9.70;;
41689;SDS011;27372;42.658;23.256;2023-04-24T01:54:59;17.10;;;10.00;;
41689;SDS011;27372;42.658;23.256;2023-04-24T01:57:25;14.55;;;10.40;;
41689;SDS011;27372;42.658;23.256;2023-04-24T01:59:51;15.60;;;10.82;;
41689;SDS011;27372;42.658;23.256;2023-04-24T02:02:16;15.80;;;10.68;;
41689;SDS011;27372;42.658;23.256;2023-04-24T02:04:42;30.23;;;16.67;;
41689;SDS011;27372;42.658;23.256;2023-04-24T02:07:07;29.95;;;17.52;;
41689;SDS011;27372;42.658;23.256;2023-04-24T02:09:33;17.55;;;11.70;;
41689;SDS011;27372;42.658;23.256;2023-04-24T02:11:58;17.30;;;11.43;;
41689;SDS011;27372;42.658;23.256;2023-04-24T02:14:23;19.33;;;11.60;;
41689;SDS011;27372;42.658;23.256;2023-04-24T02:16:49;19.77;;;12.55;;
41689;SDS011;27372;42.658;23.256;2023-04-24T02:19:14;16.42;;;10.95;;
41689;SDS011;27372;42.658;23.256;2023-04-24T02:21:41;19.20;;;11.93;;
41689;SDS011;27372;42.658;23.256;2023-04-24T02:24:06;16.88;;;11.20;;
41689;SDS011;27372;42.658;23.256;2023-04-24T02:26:31;18.95;;;11.25;;
41689;SDS011;27372;42.658;23.256;2023-04-24T02:28:57;19.92;;;12.02;;
41689;SDS011;27372;42.658;23.256;2023-04-24T02:31:22;19.75;;;10.77;;
41689;SDS011;27372;42.658;23.256;2023-04-24T02:33:48;17.48;;;12.30;;
41689;SDS011;27372;42.658;23.256;2023-04-24T02:36:13;18.00;;;11.65;;
41689;SDS011;27372;42.658;23.256;2023-04-24T02:38:39;15.30;;;11.07;;
41689;SDS011;27372;42.658;23.256;2023-04-24T02:41:04;15.35;;;10.73;;
41689;SDS011;27372;42.658;23.256;2023-04-24T02:43:31;24.00;;;14.65;;
41689;SDS011;27372;42.658;23.256;2023-04-24T02:45:58;16.27;;;11.57;;
41689;SDS011;27372;42.658;23.256;2023-04-24T02:48:23;15.07;;;10.90;;
41689;SDS011;27372;42.658;23.256;2023-04-24T02:50:49;13.27;;;10.10;;
41689;SDS011;27372;42.658;23.256;2023-04-24T02:53:15;14.25;;;10.52;;
41689;SDS011;27372;42.658;23.256;2023-04-24T02:55:41;15.93;;;10.73;;
41689;SDS011;27372;42.658;23.256;2023-04-24T02:58:06;15.27;;;10.20;;
41689;SDS011;27372;42.658;23.256;2023-04-24T03:00:32;14.25;;;10.00;;
41689;SDS011;27372;42.658;23.256;2023-04-24T03:02:57;16.58;;;9.27;;
41689;SDS011;27372;42.658;23.256;2023-04-24T03:05:23;16.15;;;10.70;;
41689;SDS011;27372;42.658;23.256;2023-04-24T03:07:48;13.77;;;9.63;;
41689;SDS011;27372;42.658;23.256;2023-04-24T03:10:14;16.65;;;9.52;;
41689;SDS011;27372;42.658;23.256;2023-04-24T03:12:40;12.77;;;8.93;;
41689;SDS011;27372;42.658;23.256;2023-04-24T03:15:06;15.10;;;9.50;;
41689;SDS011;27372;42.658;23.256;2023-04-24T03:17:32;14.07;;;9.05;;
41689;SDS011;27372;42.658;23.256;2023-04-24T03:19:57;13.88;;;8.18;;
41689;SDS011;27372;42.658;23.256;2023-04-24T03:22:23;13.73;;;8.95;;
41689;SDS011;27372;42.658;23.256;2023-04-24T03:24:48;15.13;;;9.00;;
41689;SDS011;27372;42.658;23.256;2023-04-24T03:27:14;17.50;;;8.38;;
41689;SDS011;27372;42.658;23.256;2023-04-24T03:29:39;11.45;;;8.23;;
41689;SDS011;27372;42.658;23.256;2023-04-24T03:32:04;12.27;;;8.20;;
41689;SDS011;27372;42.658;23.256;2023-04-24T03:34:30;11.25;;;8.50;;
41689;SDS011;27372;42.658;23.256;2023-04-24T03:36:55;13.15;;;9.25;;
41689;SDS011;27372;42.658;23.256;2023-04-24T03:39:21;14.60;;;8.98;;
41689;SDS011;27372;42.658;23.256;2023-04-24T03:41:46;11.85;;;7.85;;
41689;SDS011;27372;42.658;23.256;2023-04-24T03:44:11;12.38;;;7.72;;
41689;SDS011;27372;42.658;23.256;2023-04-24T03:46:37;17.70;;;8.50;;
41689;SDS011;27372;42.658;23.256;2023-04-24T03:49:02;13.30;;;7.82;;
41689;SDS011;27372;42.658;23.256;2023-04-24T03:51:28;12.90;;;8.05;;
41689;SDS011;27372;42.658;23.256;2023-04-24T03:53:55;13.13;;;8.10;;
41689;SDS011;27372;42.658;23.256;2023-04-24T03:56:20;11.43;;;7.95;;
41689;SDS011;27372;42.658;23.256;2023-04-24T03:58:45;15.60;;;10.82;;
41689;SDS011;27372;42.658;23.256;2023-04-24T04:01:11;11.57;;;8.25;;
41689;SDS011;27372;42.658;23.256;2023-04-24T04:03:37;11.80;;;8.23;;
41689;SDS011;27372;42.658;23.256;2023-04-24T04:06:02;15.05;;;8.57;;
41689;SDS011;27372;42.658;23.256;2023-04-24T04:08:28;12.13;;;8.15;;
41689;SDS011;27372;42.658;23.256;2023-04-24T04:10:53;12.00;;;7.20;;
41689;SDS011;27372;42.658;23.256;2023-04-24T04:13:18;10.13;;;7.70;;
41689;SDS011;27372;42.658;23.256;2023-04-24T04:15:44;10.43;;;8.48;;
41689;SDS011;27372;42.658;23.256;2023-04-24T04:18:09;14.05;;;8.15;;
41689;SDS011;27372;42.658;23.256;2023-04-24T04:20:35;14.30;;;7.82;;
41689;SDS011;27372;42.658;23.256;2023-04-24T04:23:00;10.88;;;8.10;;
41689;SDS011;27372;42.658;23.256;2023-04-24T04:25:25;13.25;;;7.95;;
41689;SDS011;27372;42.658;23.256;2023-04-24T04:27:51;13.52;;;9.23;;
41689;SDS011;27372;42.658;23.256;2023-04-24T04:30:17;15.15;;;8.93;;
41689;SDS011;27372;42.658;23.256;2023-04-24T04:32:43;12.80;;;8.43;;
41689;SDS011;27372;42.658;23.256;2023-04-24T04:35:08;10.75;;;8.05;;
41689;SDS011;27372;42.658;23.256;2023-04-24T04:37:34;10.98;;;8.43;;
41689;SDS011;27372;42.658;23.256;2023-04-24T04:40:00;16.20;;;9.65;;
41689;SDS011;27372;42.658;23.256;2023-04-24T04:42:26;16.25;;;8.93;;
41689;SDS011;27372;42.658;23.256;2023-04-24T04:44:52;14.95;;;9.82;;
41689;SDS011;27372;42.658;23.256;2023-04-24T04:47:18;21.13;;;10.43;;
41689;SDS011;27372;42.658;23.256;2023-04-24T04:49:47;15.98;;;9.70;;
41689;SDS011;27372;42.658;23.256;2023-04-24T04:52:13;17.02;;;9.43;;
41689;SDS011;27372;42.658;23.256;2023-04-24T04:54:38;14.90;;;9.77;;
41689;SDS011;27372;42.658;23.256;2023-04-24T04:57:04;16.00;;;10.38;;
41689;SDS011;27372;42.658;23.256;2023-04-24T04:59:30;15.20;;;10.15;;
41689;SDS011;27372;42.658;23.256;2023-04-24T05:01:59;16.60;;;10.52;;
41689;SDS011;27372;42.658;23.256;2023-04-24T05:04:24;16.95;;;10.23;;
41689;SDS011;27372;42.658;23.256;2023-04-24T05:06:50;13.38;;;10.23;;
41689;SDS011;27372;42.658;23.256;2023-04-24T05:09:16;12.70;;;9.10;;
41689;SDS011;27372;42.658;23.256;2023-04-24T05:11:41;13.02;;;9.10;;
41689;SDS011;27372;42.658;23.256;2023-04-24T05:14:07;15.98;;;8.68;;
41689;SDS011;27372;42.658;23.256;2023-04-24T05:16:32;21.58;;;8.77;;
41689;SDS011;27372;42.658;23.256;2023-04-24T05:19:13;19.48;;;8.02;;
41689;SDS011;27372;42.658;23.256;2023-04-24T05:22:10;15.15;;;8.35;;
41689;SDS011;27372;42.658;23.256;2023-04-24T05:24:36;19.75;;;8.55;;
41689;SDS011;27372;42.658;23.256;2023-04-24T05:27:02;15.10;;;7.75;;
41689;SDS011;27372;42.658;23.256;2023-04-24T05:29:29;13.52;;;7.57;;
41689;SDS011;27372;42.658;23.256;2023-04-24T05:31:56;14.98;;;7.80;;
41689;SDS011;27372;42.658;23.256;2023-04-24T05:34:22;12.82;;;7.80;;
41689;SDS011;27372;42.658;23.256;2023-04-24T05:36:48;14.88;;;8.90;;
41689;SDS011;27372;42.658;23.256;2023-04-24T05:39:13;16.65;;;8.30;;
41689;SDS011;27372;42.658;23.256;2023-04-24T05:41:39;15.63;;;8.70;;
41689;SDS011;27372;42.658;23.256;2023-04-24T05:44:05;14.98;;;8.18;;
41689;SDS011;27372;42.658;23.256;2023-04-24T05:46:34;19.95;;;8.07;;
41689;SDS011;27372;42.658;23.256;2023-04-24T05:48:59;12.70;;;7.53;;
41689;SDS011;27372;42.658;23.256;2023-04-24T05:51:25;12.73;;;8.20;;
41689;SDS011;27372;42.658;23.256;2023-04-24T05:53:51;15.57;;;7.82;;
41689;SDS011;27372;42.658;23.256;2023-04-24T05:56:16;13.30;;;7.88;;
41689;SDS011;27372;42.658;23.256;2023-04-24T05:58:42;14.57;;;7.03;;
41689;SDS011;27372;42.658;23.256;2023-04-24T06:01:07;10.48;;;6.90;;
41689;SDS011;27372;42.658;23.256;2023-04-24T06:03:33;14.07;;;6.72;;
41689;SDS011;27372;42.658;23.256;2023-04-24T06:05:59;9.82;;;6.13;;
41689;SDS011;27372;42.658;23.256;2023-04-24T06:08:24;9.23;;;6.00;;
41689;SDS011;27372;42.658;23.256;2023-04-24T06:10:50;10.50;;;5.35;;
41689;SDS011;27372;42.658;23.256;2023-04-24T06:13:16;9.85;;;5.85;;
41689;SDS011;27372;42.658;23.256;2023-04-24T06:15:41;9.68;;;5.90;;
41689;SDS011;27372;42.658;23.256;2023-04-24T06:18:08;10.55;;;6.60;;
41689;SDS011;27372;42.658;23.256;2023-04-24T06:20:35;12.93;;;6.47;;
41689;SDS011;27372;42.658;23.256;2023-04-24T06:23:00;13.45;;;7.00;;
41689;SDS011;27372;42.658;23.256;2023-04-24T06:25:26;14.38;;;6.95;;
41689;SDS011;27372;42.658;23.256;2023-04-24T06:27:52;11.73;;;6.82;;
41689;SDS011;27372;42.658;23.256;2023-04-24T06:30:17;11.75;;;7.40;;
41689;SDS011;27372;42.658;23.256;2023-04-24T06:32:43;13.52;;;7.93;;
41689;SDS011;27372;42.658;23.256;2023-04-24T06:35:08;13.18;;;8.10;;
41689;SDS011;27372;42.658;23.256;2023-04-24T06:37:34;14.00;;;8.10;;
41689;SDS011;27372;42.658;23.256;2023-04-24T06:40:00;15.45;;;8.10;;
41689;SDS011;27372;42.658;23.256;2023-04-24T06:42:26;16.48;;;8.70;;
41689;SDS011;27372;42.658;23.256;2023-04-24T06:44:51;12.23;;;7.82;;
41689;SDS011;27372;42.658;23.256;2023-04-24T06:47:16;19.88;;;7.93;;
41689;SDS011;27372;42.658;23.256;2023-04-24T06:49:42;17.73;;;8.95;;
41689;SDS011;27372;42.658;23.256;2023-04-24T06:52:07;13.32;;;7.90;;
41689;SDS011;27372;42.658;23.256;2023-04-24T06:54:33;17.38;;;8.38;;
41689;SDS011;27372;42.658;23.256;2023-04-24T06:56:59;14.35;;;8.30;;
41689;SDS011;27372;42.658;23.256;2023-04-24T06:59:28;15.05;;;7.78;;
41689;SDS011;27372;42.658;23.256;2023-04-24T07:01:54;14.15;;;8.70;;
41689;SDS011;27372;42.658;23.256;2023-04-24T07:04:20;18.45;;;9.00;;
41689;SDS011;27372;42.658;23.256;2023-04-24T07:06:46;14.15;;;8.60;;
41689;SDS011;27372;42.658;23.256;2023-04-24T07:09:12;13.55;;;8.70;;
41689;SDS011;27372;42.658;23.256;2023-04-24T07:11:47;16.55;;;7.75;;
41689;SDS011;27372;42.658;23.256;2023-04-24T07:14:13;14.30;;;8.07;;
41689;SDS011;27372;42.658;23.256;2023-04-24T07:16:41;11.10;;;7.53;;
41689;SDS011;27372;42.658;23.256;2023-04-24T07:19:07;10.38;;;7.38;;
41689;SDS011;27372;42.658;23.256;2023-04-24T07:21:32;13.60;;;7.93;;
41689;SDS011;27372;42.658;23.256;2023-04-24T07:23:58;12.43;;;7.43;;
41689;SDS011;27372;42.658;23.256;2023-04-24T07:26:25;13.15;;;7.63;;
41689;SDS011;27372;42.658;23.256;2023-04-24T07:28:51;13.45;;;7.53;;
41689;SDS011;27372;42.658;23.256;2023-04-24T07:31:17;12.30;;;6.80;;
41689;SDS011;27372;42.658;23.256;2023-04-24T07:33:42;11.27;;;6.88;;
41689;SDS011;27372;42.658;23.256;2023-04-24T07:36:08;10.82;;;7.00;;
41689;SDS011;27372;42.658;23.256;2023-04-24T07:38:40;9.30;;;6.85;;
41689;SDS011;27372;42.658;23.256;2023-04-24T07:41:06;8.93;;;6.47;;
41689;SDS011;27372;42.658;23.256;2023-04-24T07:43:31;10.60;;;5.90;;
41689;SDS011;27372;42.658;23.256;2023-04-24T07:45:56;11.27;;;6.05;;
41689;SDS011;27372;42.658;23.256;2023-04-24T07:48:22;8.25;;;5.65;;
41689;SDS011;27372;42.658;23.256;2023-04-24T07:50:47;7.07;;;5.90;;
41689;SDS011;27372;42.658;23.256;2023-04-24T07:53:13;11.18;;;6.20;;
41689;SDS011;27372;42.658;23.256;2023-04-24T07:55:38;9.43;;;5.63;;
41689;SDS011;27372;42.658;23.256;2023-04-24T07:58:04;9.50;;;5.50;;
41689;SDS011;27372;42.658;23.256;2023-04-24T08:00:29;8.57;;;5.70;;
41689;SDS011;27372;42.658;23.256;2023-04-24T08:02:55;10.73;;;5.82;;
41689;SDS011;27372;42.658;23.256;2023-04-24T08:05:20;9.73;;;6.13;;
41689;SDS011;27372;42.658;23.256;2023-04-24T08:07:46;8.95;;;5.65;;
41689;SDS011;27372;42.658;23.256;2023-04-24T08:10:13;10.88;;;5.85;;
41689;SDS011;27372;42.658;23.256;2023-04-24T08:12:40;9.18;;;6.38;;
41689;SDS011;27372;42.658;23.256;2023-04-24T08:15:05;9.85;;;6.50;;
41689;SDS011;27372;42.658;23.256;2023-04-24T08:17:31;15.13;;;6.85;;
41689;SDS011;27372;42.658;23.256;2023-04-24T08:19:57;13.55;;;6.97;;
41689;SDS011;27372;42.658;23.256;2023-04-24T08:22:26;12.57;;;6.18;;
41689;SDS011;27372;42.658;23.256;2023-04-24T08:24:55;10.00;;;6.30;;
41689;SDS011;27372;42.658;23.256;2023-04-24T08:27:21;8.57;;;6.30;;
41689;SDS011;27372;42.658;23.256;2023-04-24T08:29:47;10.82;;;6.13;;
41689;SDS011;27372;42.658;23.256;2023-04-24T08:32:13;10.15;;;6.25;;
41689;SDS011;27372;42.658;23.256;2023-04-24T08:34:38;11.32;;;6.10;;
41689;SDS011;27372;42.658;23.256;2023-04-24T08:37:04;16.98;;;6.82;;
41689;SDS011;27372;42.658;23.256;2023-04-24T08:39:29;15.52;;;6.75;;
41689;SDS011;27372;42.658;23.256;2023-04-24T08:41:55;10.98;;;6.38;;
41689;SDS011;27372;42.658;23.256;2023-04-24T08:44:20;13.30;;;6.90;;
41689;SDS011;27372;42.658;23.256;2023-04-24T08:46:47;16.23;;;6.20;;
41689;SDS011;27372;42.658;23.256;2023-04-24T08:49:14;11.93;;;6.40;;
41689;SDS011;27372;42.658;23.256;2023-04-24T08:51:43;9.77;;;6.60;;
41689;SDS011;27372;42.658;23.256;2023-04-24T08:54:09;12.00;;;6.60;;
41689;SDS011;27372;42.658;23.256;2023-04-24T08:56:37;13.65;;;6.90;;
41689;SDS011;27372;42.658;23.256;2023-04-24T08:59:05;14.27;;;6.85;;
41689;SDS011;27372;42.658;23.256;2023-04-24T09:01:32;13.15;;;6.50;;
41689;SDS011;27372;42.658;23.256;2023-04-24T09:04:03;11.75;;;6.88;;
41689;SDS011;27372;42.658;23.256;2023-04-24T09:06:30;9.45;;;6.03;;
41689;SDS011;27372;42.658;23.256;2023-04-24T09:08:57;9.90;;;5.65;;
41689;SDS011;27372;42.658;23.256;2023-04-24T09:11:26;13.60;;;5.97;;
41689;SDS011;27372;42.658;23.256;2023-04-24T09:13:51;11.38;;;6.25;;
41689;SDS011;27372;42.658;23.256;2023-04-24T09:16:18;11.50;;;6.00;;
41689;SDS011;27372;42.658;23.256;2023-04-24T09:18:44;9.38;;;5.75;;
41689;SDS011;27372;42.658;23.256;2023-04-24T09:21:09;10.25;;;5.88;;
41689;SDS011;27372;42.658;23.256;2023-04-24T09:23:35;12.55;;;5.68;;
41689;SDS011;27372;42.658;23.256;2023-04-24T09:26:02;13.75;;;5.90;;
41689;SDS011;27372;42.658;23.256;2023-04-24T09:28:39;10.93;;;5.72;;
41689;SDS011;27372;42.658;23.256;2023-04-24T09:31:09;9.70;;;5.43;;
41689;SDS011;27372;42.658;23.256;2023-04-24T09:33:38;11.60;;;5.70;;
41689;SDS011;27372;42.658;23.256;2023-04-24T09:36:03;14.32;;;5.57;;
41689;SDS011;27372;42.658;23.256;2023-04-24T09:41:00;8.32;;;5.50;;
41689;SDS011;27372;42.658;23.256;2023-04-24T09:43:28;11.40;;;5.15;;
41689;SDS011;27372;42.658;23.256;2023-04-24T09:45:55;12.68;;;5.50;;
41689;SDS011;27372;42.658;23.256;2023-04-24T09:48:32;20.17;;;5.20;;
41689;SDS011;27372;42.658;23.256;2023-04-24T09:50:59;9.00;;;5.13;;
41689;SDS011;27372;42.658;23.256;2023-04-24T09:53:26;9.30;;;4.90;;
41689;SDS011;27372;42.658;23.256;2023-04-24T09:55:52;10.15;;;5.32;;
41689;SDS011;27372;42.658;23.256;2023-04-24T09:58:18;14.60;;;5.40;;
41689;SDS011;27372;42.658;23.256;2023-04-24T10:00:52;9.95;;;5.30;;
41689;SDS011;27372;42.658;23.256;2023-04-24T10:03:18;12.93;;;5.30;;
41689;SDS011;27372;42.658;23.256;2023-04-24T10:05:45;11.95;;;5.07;;
41689;SDS011;27372;42.658;23.256;2023-04-24T10:08:11;8.35;;;4.70;;
41689;SDS011;27372;42.658;23.256;2023-04-24T10:10:39;8.90;;;4.80;;
41689;SDS011;27372;42.658;23.256;2023-04-24T10:13:06;12.38;;;4.60;;
41689;SDS011;27372;42.658;23.256;2023-04-24T10:15:32;9.45;;;4.15;;
41689;SDS011;27372;42.658;23.256;2023-04-24T10:17:58;6.53;;;4.22;;
41689;SDS011;27372;42.658;23.256;2023-04-24T10:20:25;7.82;;;4.18;;
41689;SDS011;27372;42.658;23.256;2023-04-24T10:22:54;4.30;;;3.00;;
41689;SDS011;27372;42.658;23.256;2023-04-24T10:25:25;8.20;;;3.40;;
41689;SDS011;27372;42.658;23.256;2023-04-24T10:27:52;5.05;;;3.08;;
41689;SDS011;27372;42.658;23.256;2023-04-24T10:30:19;4.65;;;3.05;;
41689;SDS011;27372;42.658;23.256;2023-04-24T10:32:45;8.20;;;2.90;;
41689;SDS011;27372;42.658;23.256;2023-04-24T10:35:14;5.00;;;3.20;;
41689;SDS011;27372;42.658;23.256;2023-04-24T10:37:42;7.35;;;3.08;;
41689;SDS011;27372;42.658;23.256;2023-04-24T10:40:10;4.63;;;2.80;;
41689;SDS011;27372;42.658;23.256;2023-04-24T10:42:40;4.78;;;2.90;;
41689;SDS011;27372;42.658;23.256;2023-04-24T10:45:18;5.00;;;2.88;;
41689;SDS011;27372;42.658;23.256;2023-04-24T10:47:59;4.78;;;3.08;;
41689;SDS011;27372;42.658;23.256;2023-04-24T10:50:29;4.13;;;3.00;;
41689;SDS011;27372;42.658;23.256;2023-04-24T10:53:07;7.35;;;3.13;;
41689;SDS011;27372;42.658;23.256;2023-04-24T10:58:35;4.43;;;2.95;;
41689;SDS011;27372;42.658;23.256;2023-04-24T11:01:03;5.63;;;3.13;;
41689;SDS011;27372;42.658;23.256;2023-04-24T11:03:30;3.63;;;3.13;;
41689;SDS011;27372;42.658;23.256;2023-04-24T11:06:07;3.78;;;3.20;;
41689;SDS011;27372;42.658;23.256;2023-04-24T11:08:45;4.78;;;3.28;;
41689;SDS011;27372;42.658;23.256;2023-04-24T11:11:11;7.45;;;3.30;;
41689;SDS011;27372;42.658;23.256;2023-04-24T11:16:31;3.50;;;2.78;;
41689;SDS011;27372;42.658;23.256;2023-04-24T11:22:02;4.40;;;3.60;;
41689;SDS011;27372;42.658;23.256;2023-04-24T11:29:47;4.47;;;3.17;;
41689;SDS011;27372;42.658;23.256;2023-04-24T11:35:04;4.53;;;3.40;;
41689;SDS011;27372;42.658;23.256;2023-04-24T11:37:38;6.15;;;4.20;;
41689;SDS011;27372;42.658;23.256;2023-04-24T11:40:07;5.07;;;4.05;;
41689;SDS011;27372;42.658;23.256;2023-04-24T11:42:40;7.40;;;4.85;;
41689;SDS011;27372;42.658;23.256;2023-04-24T11:47:35;6.47;;;5.22;;
41689;SDS011;27372;42.658;23.256;2023-04-24T11:50:00;8.57;;;4.68;;
41689;SDS011;27372;42.658;23.256;2023-04-24T11:52:27;8.75;;;5.20;;
41689;SDS011;27372;42.658;23.256;2023-04-24T11:54:54;6.97;;;3.92;;
41689;SDS011;27372;42.658;23.256;2023-04-24T11:57:20;4.57;;;3.50;;
41689;SDS011;27372;42.658;23.256;2023-04-24T11:59:46;5.53;;;3.63;;
41689;SDS011;27372;42.658;23.256;2023-04-24T12:02:22;4.70;;;3.47;;
41689;SDS011;27372;42.658;23.256;2023-04-24T12:04:51;4.93;;;3.90;;
41689;SDS011;27372;42.658;23.256;2023-04-24T12:07:18;7.07;;;3.97;;
41689;SDS011;27372;42.658;23.256;2023-04-24T12:09:47;6.97;;;3.58;;
41689;SDS011;27372;42.658;23.256;2023-04-24T12:12:19;4.80;;;3.45;;
41689;SDS011;27372;42.658;23.256;2023-04-24T12:14:47;4.13;;;3.13;;
41689;SDS011;27372;42.658;23.256;2023-04-24T12:17:14;6.75;;;3.75;;
41689;SDS011;27372;42.658;23.256;2023-04-24T12:19:44;4.10;;;3.35;;
41689;SDS011;27372;42.658;23.256;2023-04-24T12:22:11;3.95;;;3.10;;
41689;SDS011;27372;42.658;23.256;2023-04-24T12:24:55;4.15;;;3.50;;
41689;SDS011;27372;42.658;23.256;2023-04-24T12:27:21;6.03;;;3.45;;
41689;SDS011;27372;42.658;23.256;2023-04-24T12:29:51;5.18;;;3.78;;
41689;SDS011;27372;42.658;23.256;2023-04-24T12:32:18;3.50;;;3.20;;
41689;SDS011;27372;42.658;23.256;2023-04-24T12:34:43;4.78;;;3.40;;
41689;SDS011;27372;42.658;23.256;2023-04-24T12:37:10;4.50;;;3.53;;
41689;SDS011;27372;42.658;23.256;2023-04-24T12:39:38;5.45;;;3.60;;
41689;SDS011;27372;42.658;23.256;2023-04-24T12:42:04;4.22;;;3.40;;
41689;SDS011;27372;42.658;23.256;2023-04-24T12:44:33;6.25;;;3.80;;
41689;SDS011;27372;42.658;23.256;2023-04-24T12:47:02;5.85;;;3.50;;
41689;SDS011;27372;42.658;23.256;2023-04-24T12:49:31;6.47;;;3.72;;
41689;SDS011;27372;42.658;23.256;2023-04-24T12:51:57;5.22;;;3.60;;
41689;SDS011;27372;42.658;23.256;2023-04-24T12:54:22;6.03;;;4.20;;
41689;SDS011;27372;42.658;23.256;2023-04-24T12:56:48;7.93;;;3.35;;
41689;SDS011;27372;42.658;23.256;2023-04-24T12:59:13;5.00;;;3.80;;
41689;SDS011;27372;42.658;23.256;2023-04-24T13:01:39;5.68;;;3.53;;
41689;SDS011;27372;42.658;23.256;2023-04-24T13:04:05;4.47;;;3.38;;
41689;SDS011;27372;42.658;23.256;2023-04-24T13:06:30;5.97;;;3.30;;
41689;SDS011;27372;42.658;23.256;2023-04-24T13:08:56;4.35;;;3.22;;
41689;SDS011;27372;42.658;23.256;2023-04-24T13:11:23;8.45;;;3.83;;
41689;SDS011;27372;42.658;23.256;2023-04-24T13:13:48;5.70;;;3.65;;
41689;SDS011;27372;42.658;23.256;2023-04-24T13:16:14;3.50;;;3.20;;
41689;SDS011;27372;42.658;23.256;2023-04-24T13:18:40;7.13;;;3.55;;
41689;SDS011;27372;42.658;23.256;2023-04-24T13:21:05;7.00;;;3.40;;
41689;SDS011;27372;42.658;23.256;2023-04-24T13:23:31;5.45;;;3.15;;
41689;SDS011;27372;42.658;23.256;2023-04-24T13:25:56;4.18;;;2.85;;
41689;SDS011;27372;42.658;23.256;2023-04-24T13:28:22;5.38;;;3.30;;
41689;SDS011;27372;42.658;23.256;2023-04-24T13:30:48;3.70;;;3.22;;
41689;SDS011;27372;42.658;23.256;2023-04-24T13:33:14;7.70;;;3.33;;
41689;SDS011;27372;42.658;23.256;2023-04-24T13:35:39;3.40;;;2.97;;
41689;SDS011;27372;42.658;23.256;2023-04-24T13:38:05;5.43;;;3.40;;
41689;SDS011;27372;42.658;23.256;2023-04-24T13:40:31;5.72;;;3.47;;
41689;SDS011;27372;42.658;23.256;2023-04-24T13:42:57;5.57;;;3.25;;
41689;SDS011;27372;42.658;23.256;2023-04-24T13:45:22;6.07;;;3.45;;
41689;SDS011;27372;42.658;23.256;2023-04-24T13:47:48;4.10;;;3.00;;
41689;SDS011;27372;42.658;23.256;2023-04-24T13:50:13;4.72;;;3.00;;
41689;SDS011;27372;42.658;23.256;2023-04-24T13:52:40;6.05;;;3.28;;
41689;SDS011;27372;42.658;23.256;2023-04-24T13:55:05;4.30;;;3.35;;
41689;SDS011;27372;42.658;23.256;2023-04-24T13:57:31;7.50;;;3.40;;
41689;SDS011;27372;42.658;23.256;2023-04-24T13:59:57;3.85;;;3.03;;
41689;SDS011;27372;42.658;23.256;2023-04-24T14:02:26;7.07;;;3.50;;
41689;SDS011;27372;42.658;23.256;2023-04-24T14:04:52;4.70;;;3.00;;
41689;SDS011;27372;42.658;23.256;2023-04-24T14:07:17;4.57;;;3.30;;
41689;SDS011;27372;42.658;23.256;2023-04-24T14:09:43;4.10;;;2.90;;
41689;SDS011;27372;42.658;23.256;2023-04-24T14:12:08;5.32;;;2.78;;
41689;SDS011;27372;42.658;23.256;2023-04-24T14:14:34;5.50;;;2.92;;
41689;SDS011;27372;42.658;23.256;2023-04-24T14:17:00;5.60;;;2.67;;
41689;SDS011;27372;42.658;23.256;2023-04-24T14:19:25;4.80;;;2.90;;
41689;SDS011;27372;42.658;23.256;2023-04-24T14:21:50;4.63;;;3.10;;
41689;SDS011;27372;42.658;23.256;2023-04-24T14:24:16;5.03;;;2.80;;
41689;SDS011;27372;42.658;23.256;2023-04-24T14:26:41;5.75;;;3.15;;
41689;SDS011;27372;42.658;23.256;2023-04-24T14:29:07;4.43;;;2.78;;
41689;SDS011;27372;42.658;23.256;2023-04-24T14:31:35;6.65;;;3.45;;
41689;SDS011;27372;42.658;23.256;2023-04-24T14:34:01;4.05;;;2.97;;
41689;SDS011;27372;42.658;23.256;2023-04-24T14:36:26;5.78;;;3.10;;
41689;SDS011;27372;42.658;23.256;2023-04-24T14:38:51;6.57;;;3.28;;
41689;SDS011;27372;42.658;23.256;2023-04-24T14:41:17;30.65;;;4.60;;